Time;durP1;ratioP1;P1;durP2;ratioP2;P2;SDS_P1;SDS_P2;PMS_P1;PMS_P2;Temp;Humidity;BMP_temperature;BMP_pressure;BME280_temperature;BME280_humidity;BME280_pressure;Samples;Min_cycle;Max_cycle;Signal;HPM_P1;HPM_P2
2021/07/18 00:00:33;;;;;;;7.45;3.05;;;;;;;18.73;80.06;101875.22;5075812;28;20024;-74
2021/07/18 00:02:58;;;;;;;8.35;3.45;;;;;;;18.54;81.13;101874.97;5075020;28;20056;-74
2021/07/18 00:05:24;;;;;;;9.43;5.18;;;;;;;18.51;81.14;101876.34;5072178;28;20082;-74
2021/07/18 00:07:49;;;;;;;10.50;3.92;;;;;;;18.61;80.06;101873.59;5073284;28;20024;-74
2021/07/18 00:10:15;;;;;;;9.73;3.80;;;;;;;18.64;79.77;101872.25;5072211;28;20016;-74
2021/07/18 00:12:41;;;;;;;10.48;4.38;;;;;;;18.62;79.28;101868.97;5077422;28;20025;-74
2021/07/18 00:15:09;;;;;;;12.32;4.10;;;;;;;18.64;79.33;101883.09;5059973;28;20374;-74
2021/07/18 00:17:39;;;;;;;8.55;4.15;;;;;;;18.58;78.75;101884.19;5061123;28;20059;-74
2021/07/18 00:20:08;;;;;;;10.27;4.20;;;;;;;18.56;78.41;101876.31;5074849;28;20044;-74
2021/07/18 00:22:34;;;;;;;8.88;5.05;;;;;;;18.52;78.24;101874.44;5074087;28;20082;-74
2021/07/18 00:24:59;;;;;;;13.30;4.18;;;;;;;18.36;79.03;101879.88;5072951;28;20028;-74
2021/07/18 00:27:25;;;;;;;6.60;3.45;;;;;;;18.35;78.81;101880.97;5071209;28;20033;-74
2021/07/18 00:29:50;;;;;;;7.70;3.70;;;;;;;18.31;78.76;101877.16;5071646;28;20037;-74
2021/07/18 00:32:16;;;;;;;8.27;3.88;;;;;;;18.28;78.96;101888.53;5060607;28;20103;-74
2021/07/18 00:34:41;;;;;;;10.00;4.07;;;;;;;18.22;78.80;101881.50;5072623;28;20020;-74
2021/07/18 00:37:07;;;;;;;8.60;3.83;;;;;;;18.17;79.02;101878.78;5058737;28;20025;-74
2021/07/18 00:39:33;;;;;;;8.23;4.10;;;;;;;18.14;78.76;101879.34;5070500;28;20060;-74
2021/07/18 00:41:58;;;;;;;5.95;3.90;;;;;;;18.08;79.11;101880.41;5069938;28;20113;-74
2021/07/18 00:44:24;;;;;;;8.10;3.70;;;;;;;18.04;79.28;101882.03;5071271;28;20052;-74
2021/07/18 00:46:49;;;;;;;7.57;4.07;;;;;;;17.99;79.07;101879.34;5072092;28;20032;-74
2021/07/18 00:49:15;;;;;;;14.55;4.60;;;;;;;17.97;79.25;101889.63;5077118;28;20479;-74
2021/07/18 00:51:40;;;;;;;21.23;4.47;;;;;;;17.91;79.38;101885.28;5070252;28;20034;-74
2021/07/18 00:54:06;;;;;;;8.80;4.43;;;;;;;17.88;79.76;101874.97;5073983;28;20024;-74
2021/07/18 00:56:32;;;;;;;8.38;4.30;;;;;;;17.83;80.05;101886.63;5074631;28;20033;-74
2021/07/18 00:58:58;;;;;;;7.60;4.43;;;;;;;17.79;80.08;101872.81;5073264;28;20031;-74
2021/07/18 01:01:25;;;;;;;8.43;4.13;;;;;;;17.76;80.46;101876.03;5073741;28;20031;-74
2021/07/18 01:03:51;;;;;;;26.42;5.30;;;;;;;17.71;80.55;101880.63;5074567;28;20526;-74
2021/07/18 01:06:17;;;;;;;13.48;4.95;;;;;;;17.67;80.54;101883.03;5075774;28;20111;-74
2021/07/18 01:08:43;;;;;;;12.98;4.90;;;;;;;17.63;80.62;101867.59;5073015;28;20051;-74
2021/07/18 01:11:08;;;;;;;13.77;4.63;;;;;;;17.57;80.85;101864.03;5072783;28;20028;-74
2021/07/18 01:13:34;;;;;;;12.02;4.03;;;;;;;17.52;80.96;101862.13;5069980;28;20116;-74
2021/07/18 01:16:00;;;;;;;9.48;4.10;;;;;;;17.48;81.01;101866.47;5070928;28;20028;-74
2021/07/18 01:18:26;;;;;;;7.05;3.45;;;;;;;17.36;82.30;101856.94;5053827;28;20069;-73
2021/07/18 01:20:53;;;;;;;9.45;3.58;;;;;;;17.41;81.50;101867.78;5059461;28;20031;-73
2021/07/18 01:23:19;;;;;;;9.70;3.80;;;;;;;17.31;83.15;101863.16;5057663;28;20028;-73
2021/07/18 01:25:48;;;;;;;14.75;3.83;;;;;;;17.38;82.34;101863.72;5072179;28;20032;-74
2021/07/18 01:28:14;;;;;;;13.52;3.67;;;;;;;17.38;82.39;101865.59;5075892;28;20046;-74
2021/07/18 01:30:40;;;;;;;7.13;3.22;;;;;;;17.40;82.18;101868.88;5072875;28;20036;-74
2021/07/18 01:33:06;;;;;;;8.65;3.58;;;;;;;17.38;82.75;101877.25;5075781;28;20560;-74
2021/07/18 01:35:32;;;;;;;5.43;3.40;;;;;;;17.34;83.57;101873.47;5074250;28;20103;-73
2021/07/18 01:37:58;;;;;;;9.05;3.60;;;;;;;17.20;84.85;101883.97;5075441;28;20051;-74
2021/07/18 01:40:23;;;;;;;5.93;3.97;;;;;;;17.22;85.07;101878.28;5074720;28;20028;-73
2021/07/18 01:42:51;;;;;;;8.02;3.53;;;;;;;17.22;85.10;101881.81;5076334;28;20592;-73
2021/07/18 01:45:16;;;;;;;8.10;3.60;;;;;;;17.17;85.80;101881.78;5075646;28;20040;-73
2021/07/18 01:47:42;;;;;;;8.85;4.07;;;;;;;17.16;85.39;101874.75;5074316;28;20027;-74
2021/07/18 01:50:08;;;;;;;11.00;3.72;;;;;;;17.14;85.94;101878.81;5060437;28;20123;-73
2021/07/18 01:52:34;;;;;;;5.40;3.80;;;;;;;17.12;85.89;101872.84;5074805;28;20111;-73
2021/07/18 01:55:00;;;;;;;7.43;3.67;;;;;;;17.13;86.04;101871.75;5078284;28;20115;-73
2021/07/18 01:57:25;;;;;;;6.70;3.85;;;;;;;17.03;86.48;101875.22;5062630;28;20385;-73
2021/07/18 01:59:51;;;;;;;11.00;4.63;;;;;;;17.10;85.66;101873.09;5072811;28;20460;-73
2021/07/18 02:02:17;;;;;;;10.07;3.88;;;;;;;17.03;86.62;101880.63;5077144;28;20016;-73
2021/07/18 02:04:43;;;;;;;8.85;4.25;;;;;;;17.04;86.43;101873.31;5057108;28;20498;-73
2021/07/18 02:07:08;;;;;;;8.27;3.78;;;;;;;16.93;87.40;101872.47;5057778;28;20082;-73
2021/07/18 02:09:37;;;;;;;7.93;3.88;;;;;;;16.98;86.49;101877.09;5074117;28;20028;-73
2021/07/18 02:12:06;;;;;;;8.82;3.65;;;;;;;16.94;86.36;101867.88;5076302;28;20036;-73
2021/07/18 02:14:32;;;;;;;10.80;4.22;;;;;;;16.94;86.38;101881.41;5074368;28;20024;-73
2021/07/18 02:16:58;;;;;;;6.18;3.72;;;;;;;16.91;86.51;101871.94;5073046;28;20024;-73
2021/07/18 02:19:28;;;;;;;11.15;3.80;;;;;;;16.94;86.31;101871.41;5074404;28;20043;-73
2021/07/18 02:21:53;;;;;;;8.32;4.45;;;;;;;16.94;86.10;101868.69;5077365;28;20166;-73
2021/07/18 02:24:19;;;;;;;9.00;3.88;;;;;;;16.97;85.66;101870.88;5055924;28;20099;-73
2021/07/18 02:26:44;;;;;;;10.57;4.20;;;;;;;16.91;86.04;101880.88;5070763;28;20031;-74
2021/07/18 02:29:10;;;;;;;9.10;4.28;;;;;;;16.88;86.23;101877.88;5070622;28;20454;-74
2021/07/18 02:31:35;;;;;;;12.50;4.10;;;;;;;16.89;86.07;101880.31;5071655;28;20059;-73
2021/07/18 02:34:01;;;;;;;8.65;4.70;;;;;;;16.92;85.78;101878.97;5061280;28;20107;-73
2021/07/18 02:36:26;;;;;;;8.70;4.50;;;;;;;16.83;86.31;101875.13;5074994;28;20054;-73
2021/07/18 02:38:54;;;;;;;8.85;4.30;;;;;;;16.85;85.82;101875.66;5067783;28;20050;-73
2021/07/18 02:41:19;;;;;;;10.27;4.28;;;;;;;16.80;86.24;101865.63;5060038;28;20020;-73
2021/07/18 02:43:45;;;;;;;11.77;5.03;;;;;;;16.79;86.38;101863.19;5071666;28;20028;-73
2021/07/18 02:46:11;;;;;;;8.43;4.53;;;;;;;16.87;85.55;101868.09;5074581;28;20028;-73
2021/07/18 02:48:37;;;;;;;9.57;4.55;;;;;;;16.83;85.95;101867.00;5067935;28;20020;-73
2021/07/18 02:51:04;;;;;;;9.80;4.88;;;;;;;16.73;86.21;101870.47;5076305;28;20052;-73
2021/07/18 02:53:29;;;;;;;8.25;3.90;;;;;;;16.72;86.24;101868.03;5056885;28;20085;-73
2021/07/18 02:55:55;;;;;;;8.82;4.70;;;;;;;16.59;87.19;101870.09;5076922;28;20036;-73
2021/07/18 02:58:20;;;;;;;10.88;4.28;;;;;;;16.58;87.06;101870.34;5071302;28;20021;-73
2021/07/18 03:00:46;;;;;;;8.98;4.30;;;;;;;16.62;86.52;101866.84;5057313;28;20088;-73
2021/07/18 03:03:11;;;;;;;10.40;4.20;;;;;;;16.57;86.53;101863.31;5070592;28;20032;-73
2021/07/18 03:05:37;;;;;;;8.45;4.05;;;;;;;16.64;86.09;101863.88;5072464;28;20999;-73
2021/07/18 03:08:02;;;;;;;7.47;4.13;;;;;;;16.55;86.88;101860.88;5059232;28;20054;-73
2021/07/18 03:10:28;;;;;;;8.95;3.83;;;;;;;16.51;87.18;101859.75;5071505;28;20047;-73
2021/07/18 03:12:54;;;;;;;9.30;4.20;;;;;;;16.56;86.67;101859.78;5068800;28;20067;-73
2021/07/18 03:15:20;;;;;;;8.20;4.35;;;;;;;16.52;86.73;101858.69;5075192;28;20023;-73
2021/07/18 03:17:46;;;;;;;11.13;4.45;;;;;;;16.46;87.50;101861.59;5067310;28;20073;-73
2021/07/18 03:20:14;;;;;;;7.28;4.20;;;;;;;16.44;87.37;101867.28;5074916;28;20398;-73
2021/07/18 03:22:41;;;;;;;9.07;3.75;;;;;;;16.43;87.76;101865.66;5078473;28;20032;-73
2021/07/18 03:25:08;;;;;;;6.85;4.20;;;;;;;16.42;87.98;101869.44;5074560;28;20032;-73
2021/07/18 03:27:36;;;;;;;8.45;4.28;;;;;;;16.45;87.81;101870.78;5069491;28;20036;-72
2021/07/18 03:30:05;;;;;;;11.82;4.22;;;;;;;16.46;87.36;101865.13;5078591;28;20043;-72
2021/07/18 03:32:31;;;;;;;9.98;4.10;;;;;;;16.43;88.00;101867.53;5073646;28;20107;-73
2021/07/18 03:34:57;;;;;;;9.75;4.55;;;;;;;16.46;87.70;101869.72;5072668;28;20077;-73
2021/07/18 03:37:22;;;;;;;8.23;4.13;;;;;;;16.54;87.00;101867.34;5075462;28;20027;-73
2021/07/18 03:39:48;;;;;;;8.82;4.18;;;;;;;16.52;87.39;101858.69;5061852;28;20036;-73
2021/07/18 03:42:13;;;;;;;7.45;4.07;;;;;;;16.61;87.16;101867.94;5073042;28;20032;-73
2021/07/18 03:44:40;;;;;;;12.25;4.10;;;;;;;16.62;87.21;101868.75;5074273;28;20027;-72
2021/07/18 03:47:06;;;;;;;9.32;3.78;;;;;;;16.73;86.43;101866.97;5072800;28;20020;-72
2021/07/18 03:49:32;;;;;;;6.57;3.63;;;;;;;16.79;86.35;101869.44;5064957;28;20031;-73
2021/07/18 03:51:58;;;;;;;6.97;3.67;;;;;;;16.96;85.23;101869.25;5075194;28;20024;-72
2021/07/18 03:54:23;;;;;;;8.23;3.55;;;;;;;16.98;85.24;101869.78;5073303;28;20448;-72
2021/07/18 03:56:49;;;;;;;10.43;3.90;;;;;;;16.92;85.81;101868.16;5077780;28;20035;-72
2021/07/18 03:59:14;;;;;;;8.07;3.83;;;;;;;16.95;85.77;101872.22;5075951;28;20055;-73
2021/07/18 04:01:40;;;;;;;6.35;3.25;;;;;;;17.16;84.40;101871.22;5076802;28;20029;-73
2021/07/18 04:04:05;;;;;;;6.38;3.30;;;;;;;17.26;84.19;101873.19;5074106;28;20024;-73
2021/07/18 04:06:31;;;;;;;6.00;3.58;;;;;;;17.37;83.59;101877.53;5075866;28;20028;-73
2021/07/18 04:08:56;;;;;;;7.15;3.00;;;;;;;17.55;82.80;101885.16;5075730;28;20029;-73
2021/07/18 04:11:22;;;;;;;6.57;3.50;;;;;;;17.65;82.21;101885.22;5076181;28;20024;-73
2021/07/18 04:13:48;;;;;;;10.85;2.85;;;;;;;17.75;81.73;101877.13;5075158;28;20141;-73
2021/07/18 04:16:13;;;;;;;9.05;3.35;;;;;;;17.87;81.11;101879.59;5073202;28;20032;-73
2021/07/18 04:18:39;;;;;;;6.47;3.20;;;;;;;17.86;81.45;101887.97;5073517;28;20100;-73
2021/07/18 04:21:04;;;;;;;6.97;3.08;;;;;;;18.00;80.66;101887.19;5072356;28;20034;-73
2021/07/18 04:23:30;;;;;;;5.65;2.90;;;;;;;18.08;80.19;101880.41;5076102;28;20495;-73
2021/07/18 04:25:55;;;;;;;7.30;3.42;;;;;;;17.73;82.35;101887.41;5074000;28;20024;-73
2021/07/18 04:28:21;;;;;;;5.07;3.03;;;;;;;18.06;80.93;101883.38;5077764;28;20032;-73
2021/07/18 04:30:46;;;;;;;9.25;3.53;;;;;;;18.17;80.50;101878.78;5075817;28;20119;-73
2021/07/18 04:33:12;;;;;;;6.72;2.80;;;;;;;18.24;80.38;101882.03;5071222;28;20032;-73
2021/07/18 04:35:38;;;;;;;5.32;3.30;;;;;;;18.38;79.95;101880.41;5075876;28;20043;-72
2021/07/18 04:38:04;;;;;;;7.50;3.35;;;;;;;18.50;79.88;101882.84;5071577;28;20058;-73
2021/07/18 04:40:31;;;;;;;5.57;2.97;;;;;;;18.63;79.08;101878.75;5079162;28;20028;-73
2021/07/18 04:42:56;;;;;;;6.57;2.53;;;;;;;18.51;79.50;101879.03;5070388;28;20877;-73
2021/07/18 04:45:22;;;;;;;8.70;3.10;;;;;;;18.72;78.59;101879.84;5060190;28;20027;-73
2021/07/18 04:47:52;;;;;;;11.65;3.00;;;;;;;18.82;78.05;101884.41;5074965;28;20486;-73
2021/07/18 04:50:20;;;;;;;7.22;2.78;;;;;;;18.83;78.24;101875.19;5074015;28;20991;-73
2021/07/18 04:52:45;;;;;;;4.05;2.50;;;;;;;19.02;77.90;101879.75;5079341;28;20083;-73
2021/07/18 04:55:12;;;;;;;5.60;2.08;;;;;;;19.12;77.22;101873.47;5060654;28;20024;-73
2021/07/18 04:57:38;;;;;;;3.35;2.38;;;;;;;19.26;76.80;101877.22;5079019;28;20028;-73
2021/07/18 05:00:06;;;;;;;7.50;3.17;;;;;;;19.32;76.21;101880.72;5074112;28;20081;-73
2021/07/18 05:02:32;;;;;;;8.15;3.25;;;;;;;19.31;76.41;101876.38;5075983;28;20048;-73
2021/07/18 05:04:57;;;;;;;6.65;2.30;;;;;;;19.44;75.81;101881.19;5070748;28;20071;-73
2021/07/18 05:07:23;;;;;;;5.82;2.47;;;;;;;19.60;75.34;101880.06;5073239;28;20036;-73
2021/07/18 05:09:48;;;;;;;9.95;2.47;;;;;;;19.57;75.35;101886.06;5059906;28;20032;-73
2021/07/18 05:12:13;;;;;;;5.45;2.83;;;;;;;19.52;75.60;101887.94;5075256;28;20092;-73
2021/07/18 05:14:41;;;;;;;5.25;2.30;;;;;;;19.35;75.55;101877.44;5077146;28;20031;-72
2021/07/18 05:17:06;;;;;;;5.75;2.40;;;;;;;19.70;75.55;101878.34;5072038;28;20032;-73
2021/07/18 05:19:32;;;;;;;5.75;2.10;;;;;;;19.74;75.25;101873.97;5075667;28;20032;-73
2021/07/18 05:21:58;;;;;;;4.55;2.33;;;;;;;19.84;74.72;101882.88;5069664;28;20039;-73
2021/07/18 05:24:24;;;;;;;3.85;2.30;;;;;;;19.95;74.62;101886.34;5073462;28;20032;-73
2021/07/18 05:26:49;;;;;;;3.70;2.17;;;;;;;20.19;74.34;101883.72;5075300;28;20065;-73
2021/07/18 05:29:15;;;;;;;4.55;2.00;;;;;;;20.15;74.29;101891.63;5061710;28;20609;-73
2021/07/18 05:31:41;;;;;;;2.95;2.13;;;;;;;20.20;74.19;101883.44;5075305;28;20036;-73
2021/07/18 05:34:06;;;;;;;3.03;1.90;;;;;;;20.31;73.66;101886.06;5074836;28;20036;-72
2021/07/18 05:36:31;;;;;;;5.25;1.85;;;;;;;20.47;72.96;101884.88;5074301;28;20040;-73
2021/07/18 05:38:57;;;;;;;5.75;1.75;;;;;;;20.60;72.69;101889.63;5073453;28;20086;-73
2021/07/18 05:41:22;;;;;;;4.03;1.90;;;;;;;20.78;72.22;101886.16;5074460;28;20063;-73
2021/07/18 05:43:48;;;;;;;3.25;2.20;;;;;;;20.68;71.11;101894.44;5075288;28;20089;-72
2021/07/18 05:46:13;;;;;;;3.97;1.83;;;;;;;20.85;71.40;101890.47;5074841;28;20098;-73
2021/07/18 05:48:39;;;;;;;7.90;1.88;;;;;;;20.94;71.28;101894.16;5075352;28;20354;-73
2021/07/18 05:51:04;;;;;;;3.97;1.80;;;;;;;21.01;71.16;101897.38;5073310;28;20038;-73
2021/07/18 05:53:30;;;;;;;3.70;1.75;;;;;;;21.05;70.63;101895.69;5063183;28;20024;-73
2021/07/18 05:55:55;;;;;;;3.65;2.05;;;;;;;21.24;70.11;101893.00;5071926;28;20040;-73
2021/07/18 05:58:20;;;;;;;3.38;2.08;;;;;;;21.38;69.41;101899.41;5076291;28;20031;-73
2021/07/18 06:00:46;;;;;;;4.22;2.22;;;;;;;21.32;68.51;101901.34;5060367;28;20020;-73
2021/07/18 06:03:11;;;;;;;5.18;1.58;;;;;;;21.03;68.55;101912.31;5071861;28;20043;-73
2021/07/18 06:05:38;;;;;;;10.10;2.25;;;;;;;21.20;68.61;101906.41;5072729;28;20037;-73
2021/07/18 06:08:04;;;;;;;8.57;1.90;;;;;;;21.51;68.32;101908.75;5072711;28;20085;-72
2021/07/18 06:10:30;;;;;;;4.10;1.77;;;;;;;21.30;67.43;101906.28;5073829;28;20039;-73
2021/07/18 06:12:55;;;;;;;4.53;1.90;;;;;;;21.31;66.79;101907.91;5072577;28;20027;-73
2021/07/18 06:15:20;;;;;;;6.80;2.42;;;;;;;21.61;67.20;101909.44;5075152;28;20078;-73
2021/07/18 06:17:46;;;;;;;3.60;1.60;;;;;;;21.73;66.87;101909.00;5074249;28;20027;-73
2021/07/18 06:20:13;;;;;;;4.22;1.77;;;;;;;21.90;65.89;101909.28;5074861;28;20058;-73
2021/07/18 06:22:39;;;;;;;3.90;1.40;;;;;;;21.66;65.33;101909.34;5067809;28;20143;-74
2021/07/18 06:25:06;;;;;;;3.25;1.65;;;;;;;21.99;65.58;101917.59;5071699;28;20214;-73
2021/07/18 06:27:32;;;;;;;5.50;1.88;;;;;;;22.05;64.69;101915.63;5069641;28;20028;-73
2021/07/18 06:29:58;;;;;;;2.50;1.67;;;;;;;21.87;64.63;101909.06;5057485;28;20115;-73
2021/07/18 06:32:25;;;;;;;4.30;2.25;;;;;;;22.20;64.91;101918.13;5069742;28;20100;-73
2021/07/18 06:34:51;;;;;;;6.80;2.33;;;;;;;22.40;64.20;101919.69;5052462;28;20028;-74
2021/07/18 06:37:17;;;;;;;3.83;2.00;;;;;;;22.37;63.31;101921.09;5074068;28;20259;-75
2021/07/18 06:39:42;;;;;;;6.63;2.45;;;;;;;22.09;64.04;101916.69;5069842;28;20085;-73
2021/07/18 06:42:08;;;;;;;9.60;2.42;;;;;;;22.19;64.13;101913.78;5068300;28;20635;-73
2021/07/18 06:44:33;;;;;;;4.38;2.15;;;;;;;22.16;64.31;101917.91;5066151;28;20028;-73
2021/07/18 06:46:58;;;;;;;4.47;2.22;;;;;;;22.24;64.54;101921.88;5071509;28;20425;-73
2021/07/18 06:49:24;;;;;;;7.30;2.85;;;;;;;22.44;64.10;101915.25;5074610;28;20044;-74
2021/07/18 06:51:49;;;;;;;7.43;2.50;;;;;;;22.65;63.07;101913.00;5061361;28;20128;-73
2021/07/18 06:54:15;;;;;;;5.53;2.85;;;;;;;22.87;62.53;101908.47;5057822;28;20037;-73
2021/07/18 06:56:40;;;;;;;3.92;2.30;;;;;;;23.19;61.60;101917.72;5077551;28;20125;-73
2021/07/18 06:59:06;;;;;;;4.88;2.40;;;;;;;23.38;60.86;101914.84;5070065;28;20043;-73
2021/07/18 07:01:31;;;;;;;5.30;2.47;;;;;;;23.44;60.07;101919.09;5071572;28;20622;-73
2021/07/18 07:03:57;;;;;;;1.60;1.50;;;;;;;23.53;60.04;101922.72;5073034;28;20025;-73
2021/07/18 07:06:23;;;;;;;3.47;1.67;;;;;;;23.39;60.43;101922.75;5075728;28;20028;-73
2021/07/18 07:08:49;;;;;;;3.05;1.52;;;;;;;23.25;60.68;101926.59;5071555;28;20070;-74
2021/07/18 07:11:16;;;;;;;6.70;2.33;;;;;;;23.24;60.82;101931.25;5071057;28;20033;-73
2021/07/18 07:13:41;;;;;;;4.25;2.15;;;;;;;23.01;60.31;101935.84;5068429;28;20016;-73
2021/07/18 07:16:07;;;;;;;2.67;1.60;;;;;;;23.05;60.22;101934.09;5069221;28;20036;-73
2021/07/18 07:18:32;;;;;;;3.40;1.80;;;;;;;23.06;59.54;101933.00;5075362;28;20024;-75
2021/07/18 07:20:58;;;;;;;4.38;2.08;;;;;;;23.40;58.17;101927.09;5057178;28;20062;-73
2021/07/18 07:23:23;;;;;;;2.50;1.73;;;;;;;23.19;58.23;101929.44;5058513;28;20055;-74
2021/07/18 07:25:49;;;;;;;4.53;2.17;;;;;;;23.50;58.41;101934.25;5071826;28;20103;-73
2021/07/18 07:28:14;;;;;;;3.97;1.90;;;;;;;23.67;57.20;101931.72;5073897;28;20040;-73
2021/07/18 07:30:40;;;;;;;3.88;2.03;;;;;;;23.99;56.44;101940.88;5075084;28;20055;-73
2021/07/18 07:33:05;;;;;;;5.97;2.22;;;;;;;23.73;55.56;101938.72;5072023;28;20032;-74
2021/07/18 07:35:31;;;;;;;2.03;1.80;;;;;;;23.78;55.58;101935.06;5070029;28;20111;-74
2021/07/18 07:37:56;;;;;;;4.20;1.83;;;;;;;23.84;55.38;101938.47;5071372;28;20029;-74
2021/07/18 07:40:22;;;;;;;4.80;1.80;;;;;;;24.33;55.11;101946.63;5057403;28;20020;-73
2021/07/18 07:42:48;;;;;;;3.20;1.33;;;;;;;24.76;53.96;101946.06;5075246;28;20043;-73
2021/07/18 07:45:14;;;;;;;3.28;1.70;;;;;;;25.34;52.89;101953.28;5067922;28;20489;-73
2021/07/18 07:47:41;;;;;;;4.13;1.60;;;;;;;25.76;51.82;101940.78;5071212;28;20036;-73
2021/07/18 07:50:08;;;;;;;2.60;1.63;;;;;;;25.51;52.29;101939.59;5070971;28;20213;-74
2021/07/18 07:52:34;;;;;;;4.65;1.75;;;;;;;25.35;51.84;101943.91;5068641;28;20059;-74
2021/07/18 07:55:00;;;;;;;4.78;1.77;;;;;;;25.52;51.77;101943.16;5072009;28;21975;-74
2021/07/18 07:57:26;;;;;;;6.53;2.05;;;;;;;24.47;53.67;101940.28;5066356;28;20042;-74
2021/07/18 07:59:51;;;;;;;4.25;1.50;;;;;;;23.96;55.53;101939.56;5060342;28;20115;-74
2021/07/18 08:02:17;;;;;;;3.58;1.65;;;;;;;23.67;56.02;101937.19;5073741;28;20115;-73
2021/07/18 08:04:42;;;;;;;5.25;1.58;;;;;;;23.63;56.29;101936.19;5076035;28;20154;-73
2021/07/18 08:07:08;;;;;;;1.98;1.63;;;;;;;24.04;55.24;101932.53;5072282;28;20494;-73
2021/07/18 08:09:34;;;;;;;4.20;1.45;;;;;;;24.21;54.68;101942.78;5074283;28;20036;-73
2021/07/18 08:11:59;;;;;;;5.20;1.58;;;;;;;24.09;54.46;101929.69;5059152;28;20593;-74
2021/07/18 08:14:25;;;;;;;2.00;1.23;;;;;;;24.59;53.52;101929.53;5058241;28;20016;-73
2021/07/18 08:16:50;;;;;;;2.70;1.20;;;;;;;24.61;53.15;101938.28;5077294;28;20157;-73
2021/07/18 08:19:16;;;;;;;1.88;1.30;;;;;;;25.36;52.83;101939.25;5070951;28;20027;-73
2021/07/18 08:21:42;;;;;;;3.53;1.38;;;;;;;24.61;51.98;101943.75;5072793;28;20249;-74
2021/07/18 08:24:08;;;;;;;3.38;1.33;;;;;;;25.32;51.65;101941.00;5073291;28;20028;-73
2021/07/18 08:26:34;;;;;;;2.42;1.58;;;;;;;25.55;51.80;101932.34;5076061;28;20463;-73
2021/07/18 08:29:00;;;;;;;3.92;1.42;;;;;;;25.90;49.80;101935.13;5077235;28;20150;-73
2021/07/18 08:31:26;;;;;;;2.80;1.13;;;;;;;25.86;50.32;101928.69;5073420;28;20919;-74
2021/07/18 08:33:52;;;;;;;3.00;1.50;;;;;;;25.15;50.77;101931.59;5074702;28;20032;-74
2021/07/18 08:36:18;;;;;;;2.95;1.45;;;;;;;25.25;51.95;101930.47;5073010;28;20032;-73
2021/07/18 08:38:44;;;;;;;3.20;1.10;;;;;;;25.04;51.95;101932.19;5077232;28;20099;-74
2021/07/18 08:41:10;;;;;;;4.97;1.52;;;;;;;24.88;52.23;101935.31;5078022;28;20028;-74
2021/07/18 08:43:35;;;;;;;2.17;1.08;;;;;;;24.81;52.42;101934.97;5076557;28;20021;-74
2021/07/18 08:46:03;;;;;;;1.55;1.20;;;;;;;24.77;52.42;101931.22;5076731;28;20031;-74
2021/07/18 08:48:29;;;;;;;4.88;1.40;;;;;;;24.74;52.54;101928.31;5062100;28;20490;-74
2021/07/18 08:50:55;;;;;;;2.15;1.40;;;;;;;24.34;52.66;101931.00;5078757;28;20028;-75
2021/07/18 08:53:25;;;;;;;2.15;1.17;;;;;;;24.83;52.37;101937.41;5077435;28;20034;-74
2021/07/18 08:55:51;;;;;;;5.15;1.25;;;;;;;25.24;50.44;101932.41;5076331;28;20031;-74
2021/07/18 08:58:17;;;;;;;8.70;2.97;;;;;;;25.26;51.44;101930.16;5071575;28;20020;-73
2021/07/18 09:00:43;;;;;;;20.73;11.55;;;;;;;25.19;50.80;101934.50;5065338;28;20036;-74
2021/07/18 09:03:14;;;;;;;4.32;1.77;;;;;;;25.47;50.34;101926.81;5073437;28;20036;-74
2021/07/18 09:05:39;;;;;;;1.75;1.17;;;;;;;26.10;49.22;101926.25;5061570;28;20028;-74
2021/07/18 09:08:06;;;;;;;3.92;1.45;;;;;;;26.16;49.58;101924.13;5074255;28;20039;-74
2021/07/18 09:10:32;;;;;;;3.55;1.30;;;;;;;25.60;50.62;101929.44;5075134;28;20021;-74
2021/07/18 09:13:12;;;;;;;3.00;1.20;;;;;;;26.01;50.29;101922.66;5073662;28;20402;-74
2021/07/18 09:15:38;;;;;;;2.80;1.45;;;;;;;25.46;51.31;101923.25;5076802;28;20024;-74
2021/07/18 09:18:12;;;;;;;2.60;1.20;;;;;;;24.88;51.13;101927.09;5075082;28;20414;-74
2021/07/18 09:20:40;;;;;;;3.05;1.35;;;;;;;25.34;50.94;101928.59;5072477;28;20070;-74
2021/07/18 09:23:34;;;;;;;4.43;1.38;;;;;;;25.30;50.22;101930.31;5062881;28;20035;-73
2021/07/18 09:26:20;;;;;;;2.95;1.15;;;;;;;25.38;49.68;101931.50;5041073;28;20040;-74
2021/07/18 09:28:46;;;;;;;2.40;1.23;;;;;;;26.02;50.02;101916.06;5065446;28;22029;-74
2021/07/18 09:31:34;;;;;;;4.57;1.73;;;;;;;25.80;49.03;101914.28;5073229;28;20044;-74
2021/07/18 09:34:11;;;;;;;4.13;1.20;;;;;;;24.98;50.67;101923.28;5055641;28;20028;-74
2021/07/18 09:36:36;;;;;;;2.80;1.08;;;;;;;25.52;50.10;101919.25;5073071;28;20043;-74
2021/07/18 09:39:13;;;;;;;3.35;1.00;;;;;;;25.10;50.84;101914.47;5059149;28;20024;-74
2021/07/18 09:41:41;;;;;;;1.77;1.13;;;;;;;25.72;48.79;101909.63;5071160;28;20037;-73
2021/07/18 09:44:07;;;;;;;3.80;1.10;;;;;;;26.16;48.76;101913.94;5072561;28;20025;-73
2021/07/18 09:46:33;;;;;;;3.92;1.00;;;;;;;26.71;48.29;101910.44;5072158;28;20029;-74
2021/07/18 09:49:03;;;;;;;2.17;1.10;;;;;;;25.36;48.25;101915.34;5057313;28;20169;-74
2021/07/18 09:51:33;;;;;;;4.63;1.10;;;;;;;26.34;47.77;101922.16;5069760;28;20036;-74
2021/07/18 09:54:12;;;;;;;3.28;1.52;;;;;;;26.38;46.48;101907.47;5073616;28;20032;-73
2021/07/18 09:56:38;;;;;;;1.38;1.15;;;;;;;27.06;47.52;101913.84;5072649;28;20031;-73
2021/07/18 09:59:05;;;;;;;1.95;1.33;;;;;;;27.46;45.44;101913.44;5074907;28;20024;-73
2021/07/18 10:01:34;;;;;;;2.17;1.13;;;;;;;26.93;45.02;101908.56;5070213;28;20076;-73
2021/07/18 10:04:01;;;;;;;2.15;1.10;;;;;;;26.84;46.88;101910.56;5069085;28;20032;-73
2021/07/18 10:06:31;;;;;;;3.35;1.20;;;;;;;26.95;45.57;101906.31;5059969;28;20035;-73
2021/07/18 10:09:09;;;;;;;2.08;1.05;;;;;;;27.12;45.83;101911.75;5069740;28;20047;-73
2021/07/18 10:11:35;;;;;;;4.97;1.70;;;;;;;27.25;44.96;101907.94;5056172;28;20043;-73
2021/07/18 10:14:01;;;;;;;3.47;1.10;;;;;;;27.36;44.36;101906.41;5072835;28;20032;-73
2021/07/18 10:16:28;;;;;;;4.68;1.20;;;;;;;27.73;44.47;101898.38;5075367;28;20039;-73
2021/07/18 10:18:55;;;;;;;2.28;1.20;;;;;;;27.69;43.79;101898.25;5065219;28;20027;-74
2021/07/18 10:21:23;;;;;;;3.67;1.63;;;;;;;27.36;44.25;101903.66;5058613;28;20081;-73
2021/07/18 10:23:51;;;;;;;1.42;1.13;;;;;;;27.30;43.64;101895.94;5057998;28;20043;-73
2021/07/18 10:26:36;;;;;;;4.35;1.10;;;;;;;27.76;43.90;101891.41;5072765;28;20047;-73
2021/07/18 10:29:03;;;;;;;2.22;0.88;;;;;;;27.54;44.31;101878.75;5069501;28;20060;-73
2021/07/18 10:31:35;;;;;;;3.65;0.90;;;;;;;27.14;44.30;101889.41;5068982;28;20063;-73
2021/07/18 10:34:03;;;;;;;2.50;1.02;;;;;;;27.05;44.94;101879.25;5068114;28;20031;-73
2021/07/18 10:36:29;;;;;;;2.17;1.20;;;;;;;27.57;43.75;101873.38;5068181;28;20573;-73
2021/07/18 10:38:55;;;;;;;1.65;1.00;;;;;;;27.61;43.51;101874.31;5067695;28;20039;-73
2021/07/18 10:41:44;;;;;;;3.55;1.40;;;;;;;27.49;43.12;101870.72;5067302;28;20067;-74
2021/07/18 10:44:16;;;;;;;1.77;0.85;;;;;;;27.91;43.55;101872.31;5055506;28;20101;-73
2021/07/18 10:46:42;;;;;;;3.60;1.38;;;;;;;27.85;42.57;101868.16;5069242;28;20027;-73
2021/07/18 10:49:12;;;;;;;3.95;1.13;;;;;;;27.72;43.64;101868.44;5049886;28;20032;-74
2021/07/18 10:51:39;;;;;;;2.33;1.40;;;;;;;26.61;45.37;101871.53;5054720;28;20029;-73
2021/07/18 10:54:09;;;;;;;3.78;1.30;;;;;;;27.11;44.96;101874.38;5068271;28;20078;-74
2021/07/18 10:56:51;;;;;;;5.10;1.45;;;;;;;27.10;43.36;101870.78;5069366;28;20028;-74
2021/07/18 10:59:36;;;;;;;4.65;1.20;;;;;;;27.20;43.73;101869.59;5068538;28;20105;-73
2021/07/18 11:02:30;;;;;;;1.85;0.93;;;;;;;27.63;43.27;101869.31;5070190;28;20035;-74
2021/07/18 11:04:57;;;;;;;1.83;1.10;;;;;;;27.73;43.30;101859.03;5065220;28;20024;-73
2021/07/18 11:07:28;;;;;;;6.53;1.63;;;;;;;27.50;42.54;101858.56;5056700;28;20028;-74
2021/07/18 11:10:17;;;;;;;2.65;1.00;;;;;;;28.09;42.89;101866.63;5070794;28;20059;-73
2021/07/18 11:13:00;;;;;;;2.67;0.98;;;;;;;28.24;41.60;101868.75;5070838;28;20028;-73
2021/07/18 11:15:30;;;;;;;4.22;1.27;;;;;;;28.61;41.78;101868.81;5074919;28;20036;-73
2021/07/18 11:18:06;;;;;;;2.30;1.20;;;;;;;28.16;39.84;101862.16;5074909;28;20031;-74
2021/07/18 11:20:47;;;;;;;3.63;1.38;;;;;;;27.67;41.73;101864.75;5070153;28;20098;-80
2021/07/18 11:23:35;;;;;;;1.80;1.00;;;;;;;28.39;42.25;101862.59;5070238;28;20781;-73